Time;durP1;ratioP1;P1;durP2;ratioP2;P2;SDS_P1;SDS_P2;PMS_P1;PMS_P2;Temp;Humidity;BMP_temperature;BMP_pressure;BME280_temperature;BME280_humidity;BME280_pressure;Samples;Min_cycle;Max_cycle;Signal;HPM_P1;HPM_P2
2022/01/29 00:02:01;;;;;;;30.00;18.02;;;3.50;99.90;;;;;;4940806;29;20459;-86
2022/01/29 00:04:26;;;;;;;25.85;15.05;;;3.50;99.90;;;;;;4936930;29;20115;-86
2022/01/29 00:06:52;;;;;;;30.60;18.27;;;3.60;99.90;;;;;;4942379;29;20545;-86
2022/01/29 00:09:17;;;;;;;80.10;54.47;;;3.60;99.90;;;;;;4941304;29;20046;-86
2022/01/29 00:11:43;;;;;;;57.95;39.53;;;4.10;99.90;;;;;;4940760;29;20028;-87
2022/01/29 00:14:10;;;;;;;29.73;19.02;;;3.70;99.90;;;;;;4940493;29;20034;-87
2022/01/29 00:16:36;;;;;;;28.50;17.58;;;3.60;99.90;;;;;;4938785;29;20044;-86
2022/01/29 00:19:03;;;;;;;25.85;15.27;;;3.60;99.90;;;;;;4939112;29;20028;-87
2022/01/29 00:21:29;;;;;;;32.45;19.55;;;3.70;99.90;;;;;;4940875;29;20031;-86
2022/01/29 00:23:55;;;;;;;25.40;15.80;;;3.70;99.90;;;;;;4940451;29;20056;-86
2022/01/29 00:26:23;;;;;;;56.72;33.75;;;3.70;99.90;;;;;;4940411;29;20059;-86
2022/01/29 00:28:51;;;;;;;43.70;26.60;;;3.60;99.90;;;;;;4939419;29;20031;-86
2022/01/29 00:31:17;;;;;;;48.35;30.58;;;4.10;99.90;;;;;;4936637;29;20023;-87
2022/01/29 00:33:42;;;;;;;36.30;22.55;;;3.60;99.90;;;;;;4940902;29;20039;-86
2022/01/29 00:36:08;;;;;;;49.17;28.58;;;3.80;99.90;;;;;;4940347;29;20122;-86
2022/01/29 00:38:35;;;;;;;40.17;23.73;;;3.50;99.90;;;;;;4940459;29;20038;-87
2022/01/29 00:41:02;;;;;;;34.35;20.58;;;3.40;99.90;;;;;;4941920;28;20050;-91
2022/01/29 00:43:27;;;;;;;26.92;16.13;;;3.50;99.90;;;;;;4937615;29;20062;-91
2022/01/29 00:45:53;;;;;;;77.82;44.28;;;3.60;99.90;;;;;;4940006;28;20039;-91
2022/01/29 00:48:19;;;;;;;31.23;19.45;;;3.90;99.90;;;;;;4941094;29;20020;-91
2022/01/29 00:50:45;;;;;;;50.55;29.20;;;3.60;99.90;;;;;;4940958;29;20038;-90
2022/01/29 00:53:10;;;;;;;25.48;17.00;;;3.50;99.90;;;;;;4928487;29;20031;-91
2022/01/29 00:55:36;;;;;;;27.92;17.05;;;3.60;99.90;;;;;;4951735;29;20039;-91
2022/01/29 00:58:02;;;;;;;35.60;20.60;;;3.50;99.90;;;;;;4954867;29;20019;-91
2022/01/29 01:00:28;;;;;;;28.95;17.88;;;3.50;99.90;;;;;;4924878;29;20031;-91
2022/01/29 01:02:53;;;;;;;39.72;23.95;;;3.80;99.90;;;;;;4925264;29;20480;-91
2022/01/29 01:05:19;;;;;;;42.17;23.70;;;3.50;99.90;;;;;;4924661;29;20028;-91
2022/01/29 01:07:45;;;;;;;29.52;16.90;;;3.50;99.90;;;;;;4923636;29;20027;-91
2022/01/29 01:10:11;;;;;;;26.30;15.50;;;3.90;99.90;;;;;;4953757;29;20098;-91
2022/01/29 01:12:38;;;;;;;28.05;16.48;;;3.40;99.90;;;;;;4955497;29;20110;-91
2022/01/29 01:15:05;;;;;;;25.95;16.50;;;3.40;99.90;;;;;;4942658;29;20087;-91
2022/01/29 01:17:31;;;;;;;25.80;14.75;;;3.40;99.90;;;;;;4925710;29;20028;-91
2022/01/29 01:19:56;;;;;;;28.75;17.73;;;3.40;99.90;;;;;;4921016;29;20038;-91
2022/01/29 01:22:22;;;;;;;63.53;35.53;;;3.30;99.90;;;;;;4935158;29;20024;-91
2022/01/29 01:24:48;;;;;;;60.25;33.58;;;3.80;99.90;;;;;;4924148;29;20432;-91
2022/01/29 01:27:15;;;;;;;48.17;27.13;;;3.50;99.90;;;;;;4940709;29;20115;-91
2022/01/29 01:29:41;;;;;;;26.02;16.13;;;3.50;99.90;;;;;;4946469;29;20035;-91
2022/01/29 01:32:11;;;;;;;45.38;26.65;;;3.50;99.90;;;;;;4932958;29;20476;-91
2022/01/29 01:34:40;;;;;;;49.42;27.95;;;3.50;99.90;;;;;;4937239;29;20460;-91
2022/01/29 01:37:10;;;;;;;35.92;20.20;;;3.50;99.90;;;;;;4954284;29;20035;-91
2022/01/29 01:39:38;;;;;;;32.20;19.45;;;3.50;99.90;;;;;;4940862;29;20023;-91
2022/01/29 01:42:06;;;;;;;30.05;17.83;;;3.40;99.90;;;;;;4939937;29;20715;-91
2022/01/29 01:44:46;;;;;;;27.45;16.70;;;3.40;99.90;;;;;;4941296;29;20059;-91
2022/01/29 01:47:13;;;;;;;28.70;17.00;;;3.40;99.90;;;;;;4933404;29;20039;-91
2022/01/29 01:49:39;;;;;;;45.03;25.02;;;3.70;99.90;;;;;;4921916;29;20058;-91
2022/01/29 01:52:08;;;;;;;26.98;16.08;;;3.60;99.90;;;;;;4938098;29;20043;-91
2022/01/29 01:54:34;;;;;;;28.35;16.55;;;3.60;99.90;;;;;;4938386;28;20012;-91
2022/01/29 01:57:00;;;;;;;25.88;16.58;;;3.60;99.90;;;;;;4940063;29;20047;-91
2022/01/29 01:59:29;;;;;;;34.13;19.33;;;3.40;99.90;;;;;;4940362;29;20028;-90
2022/01/29 02:01:55;;;;;;;25.60;16.05;;;3.70;99.90;;;;;;4925262;29;20041;-91
2022/01/29 02:04:20;;;;;;;27.60;17.50;;;3.40;99.90;;;;;;4935339;29;20513;-91
2022/01/29 02:06:49;;;;;;;30.08;17.90;;;3.40;99.90;;;;;;4939811;29;20028;-90
2022/01/29 02:09:17;;;;;;;34.25;20.02;;;3.30;99.90;;;;;;4924019;29;20045;-90
2022/01/29 02:11:51;;;;;;;38.58;20.35;;;3.50;99.90;;;;;;4923581;29;20038;-91
2022/01/29 02:14:23;;;;;;;69.57;34.80;;;3.30;99.90;;;;;;4923954;29;20098;-91
2022/01/29 02:16:49;;;;;;;37.00;20.35;;;3.40;99.90;;;;;;4938840;29;20039;-90
2022/01/29 02:19:15;;;;;;;38.97;21.95;;;3.70;99.90;;;;;;4935572;29;20497;-91
2022/01/29 02:21:41;;;;;;;31.35;18.17;;;3.30;99.90;;;;;;4939986;29;20038;-91
2022/01/29 02:24:06;;;;;;;29.77;17.13;;;3.50;99.90;;;;;;4920169;29;20123;-91
2022/01/29 02:26:32;;;;;;;29.38;17.83;;;3.40;99.90;;;;;;4923776;29;20019;-91
2022/01/29 02:28:58;;;;;;;36.28;20.75;;;3.40;99.90;;;;;;4950046;29;20035;-90
2022/01/29 02:31:24;;;;;;;55.30;28.65;;;3.70;99.90;;;;;;4935016;29;20047;-91
2022/01/29 02:33:50;;;;;;;29.15;17.83;;;3.40;99.90;;;;;;4939406;29;20038;-91
2022/01/29 02:36:15;;;;;;;46.85;25.27;;;3.40;99.90;;;;;;4925168;29;20047;-90
2022/01/29 02:38:41;;;;;;;28.77;16.67;;;3.40;99.90;;;;;;4923739;29;20032;-91
2022/01/29 02:41:07;;;;;;;28.85;17.33;;;3.30;99.90;;;;;;4939850;29;20034;-90
2022/01/29 02:43:49;;;;;;;36.00;21.58;;;3.20;99.90;;;;;;4936563;29;20032;-90
2022/01/29 02:48:43;;;;;;;46.85;26.00;;;3.50;99.90;;;;;;4939348;29;20048;-91
2022/01/29 02:51:09;;;;;;;31.23;18.08;;;3.70;99.90;;;;;;4923721;29;20500;-91
2022/01/29 02:53:34;;;;;;;45.20;23.55;;;3.30;99.90;;;;;;4925002;29;20035;-90
2022/01/29 02:56:00;;;;;;;29.17;17.30;;;3.20;99.90;;;;;;4939278;29;20038;-90
2022/01/29 02:58:26;;;;;;;38.30;22.05;;;3.20;99.90;;;;;;4918934;29;20028;-91
2022/01/29 03:00:51;;;;;;;29.17;18.13;;;3.30;99.90;;;;;;4938694;29;20034;-91
2022/01/29 03:03:17;;;;;;;29.27;17.23;;;3.60;99.90;;;;;;4938629;29;20039;-91
2022/01/29 03:05:43;;;;;;;26.42;16.98;;;3.40;99.90;;;;;;4941083;29;20036;-91
2022/01/29 03:08:09;;;;;;;38.08;22.75;;;3.40;99.90;;;;;;4942942;29;20027;-90
2022/01/29 03:10:35;;;;;;;34.58;20.35;;;3.70;99.90;;;;;;4940387;29;20034;-91
2022/01/29 03:13:00;;;;;;;44.97;25.85;;;3.40;99.90;;;;;;4941664;29;20066;-91
2022/01/29 03:15:26;;;;;;;35.38;20.45;;;3.20;99.90;;;;;;4942876;29;20032;-92
2022/01/29 03:17:52;;;;;;;40.22;22.90;;;3.20;99.90;;;;;;4942976;29;20538;-91
2022/01/29 03:20:17;;;;;;;31.80;18.83;;;3.20;99.90;;;;;;4942870;29;20074;-90
2022/01/29 03:22:43;;;;;;;30.52;16.63;;;3.30;99.90;;;;;;4941144;29;20038;-91
2022/01/29 03:25:09;;;;;;;30.23;17.60;;;3.60;99.90;;;;;;4940683;29;20028;-91
2022/01/29 03:27:34;;;;;;;28.83;16.73;;;3.20;99.90;;;;;;4942889;29;20082;-91
2022/01/29 03:30:01;;;;;;;30.80;16.83;;;3.30;99.90;;;;;;4926850;29;20039;-91
2022/01/29 03:32:26;;;;;;;26.60;16.40;;;2.80;99.90;;;;;;4942191;29;20059;-90
2022/01/29 03:34:52;;;;;;;36.10;22.33;;;2.90;99.90;;;;;;4927274;29;20058;-91
2022/01/29 03:37:18;;;;;;;27.95;17.85;;;3.20;99.90;;;;;;4939058;29;20139;-91
2022/01/29 03:39:45;;;;;;;28.83;17.73;;;3.10;99.90;;;;;;4953154;29;20027;-91
2022/01/29 03:42:13;;;;;;;27.85;16.15;;;3.30;99.90;;;;;;4927260;29;20199;-89
2022/01/29 03:44:38;;;;;;;26.58;15.32;;;3.30;99.90;;;;;;4942385;29;20020;-90
2022/01/29 03:47:04;;;;;;;28.98;16.50;;;3.20;99.90;;;;;;4926785;29;20062;-91
2022/01/29 03:49:30;;;;;;;27.92;16.40;;;3.30;99.90;;;;;;4922861;29;20035;-91
2022/01/29 03:51:55;;;;;;;28.20;16.35;;;3.50;99.90;;;;;;4956445;29;20046;-91
2022/01/29 03:54:21;;;;;;;28.25;16.88;;;3.40;99.90;;;;;;4929309;29;20028;-91
2022/01/29 03:56:47;;;;;;;26.15;16.02;;;3.30;99.90;;;;;;4928334;29;20047;-91
2022/01/29 03:59:12;;;;;;;31.70;18.25;;;3.30;99.90;;;;;;4941963;29;20031;-90
2022/01/29 04:01:38;;;;;;;26.90;15.80;;;3.40;99.90;;;;;;4939644;29;20035;-91
2022/01/29 04:04:04;;;;;;;27.23;15.65;;;3.30;99.90;;;;;;4940278;29;20051;-91
2022/01/29 04:06:30;;;;;;;27.90;16.20;;;3.20;99.90;;;;;;4942551;29;20031;-91
2022/01/29 04:08:57;;;;;;;26.08;15.75;;;3.60;99.90;;;;;;4942120;29;20032;-91
2022/01/29 04:11:23;;;;;;;25.27;14.88;;;3.20;99.90;;;;;;4941773;29;20033;-91
2022/01/29 04:13:49;;;;;;;25.50;15.45;;;3.70;99.90;;;;;;4940915;29;20082;-91
2022/01/29 04:16:17;;;;;;;27.55;15.63;;;3.60;99.90;;;;;;4938113;29;20055;-91
2022/01/29 04:18:43;;;;;;;24.55;14.68;;;3.50;99.90;;;;;;4941861;29;20027;-91
2022/01/29 04:21:09;;;;;;;23.50;15.13;;;3.20;99.90;;;;;;4942029;29;20055;-91
2022/01/29 04:23:35;;;;;;;26.73;16.08;;;3.30;99.90;;;;;;4928179;29;20051;-90
2022/01/29 04:26:03;;;;;;;25.27;15.50;;;3.30;99.90;;;;;;4941872;29;20036;-90
2022/01/29 04:28:33;;;;;;;29.50;15.75;;;3.30;99.90;;;;;;4921794;29;20106;-91
2022/01/29 04:31:04;;;;;;;25.48;15.52;;;3.70;99.90;;;;;;4956346;29;20031;-91
2022/01/29 04:33:30;;;;;;;25.15;15.38;;;3.30;99.90;;;;;;4942172;29;20087;-91
2022/01/29 04:36:01;;;;;;;28.42;14.95;;;3.50;99.90;;;;;;4949875;29;20126;-91
2022/01/29 04:38:28;;;;;;;24.33;15.50;;;2.70;99.90;;;;;;4949525;29;20023;-91
2022/01/29 04:40:56;;;;;;;25.55;16.13;;;2.80;99.90;;;;;;4941581;29;20050;-90
2022/01/29 04:43:21;;;;;;;25.30;15.07;;;3.30;99.90;;;;;;4920705;29;20131;-91
2022/01/29 04:45:47;;;;;;;25.08;15.65;;;3.10;99.90;;;;;;4925585;29;20479;-91
2022/01/29 04:48:13;;;;;;;28.83;17.30;;;3.20;99.90;;;;;;4927807;29;20038;-91
2022/01/29 04:50:39;;;;;;;27.10;16.75;;;3.40;99.90;;;;;;4941139;29;20043;-90
2022/01/29 04:53:05;;;;;;;24.65;15.48;;;3.40;99.90;;;;;;4940925;29;20114;-90
2022/01/29 04:55:32;;;;;;;26.38;16.30;;;3.20;99.90;;;;;;4937986;29;20031;-91
2022/01/29 04:57:58;;;;;;;28.42;16.38;;;3.20;99.90;;;;;;4940147;29;20177;-91
2022/01/29 05:00:24;;;;;;;24.83;16.02;;;3.40;99.90;;;;;;4925558;29;20036;-91
2022/01/29 05:02:52;;;;;;;31.55;17.63;;;3.10;99.90;;;;;;4941068;29;20035;-91
2022/01/29 05:05:18;;;;;;;31.60;18.13;;;3.20;99.90;;;;;;4938528;29;20072;-90
2022/01/29 05:07:45;;;;;;;27.65;17.33;;;3.00;99.90;;;;;;4920952;29;20024;-91
2022/01/29 05:10:12;;;;;;;27.83;16.75;;;3.10;99.90;;;;;;4952753;29;20031;-91
2022/01/29 05:15:52;;;;;;;26.25;16.48;;;3.10;99.90;;;;;;4941471;29;20114;-92
2022/01/29 05:26:52;;;;;;;25.83;15.88;;;3.00;99.90;;;;;;4947507;29;20637;-91
2022/01/29 05:29:18;;;;;;;26.65;16.55;;;2.90;99.90;;;;;;4943816;29;20051;-91
2022/01/29 05:31:44;;;;;;;29.35;16.92;;;2.90;99.90;;;;;;4936663;29;20126;-91
2022/01/29 05:34:10;;;;;;;28.73;17.20;;;2.80;99.90;;;;;;4952547;29;20054;-90
2022/01/29 05:36:36;;;;;;;27.85;16.35;;;2.80;99.90;;;;;;4937298;29;20047;-91
2022/01/29 05:39:03;;;;;;;26.02;15.48;;;2.80;99.90;;;;;;4921446;29;20031;-91
2022/01/29 05:41:29;;;;;;;29.02;16.70;;;2.70;99.90;;;;;;4920842;29;20078;-90
2022/01/29 05:43:55;;;;;;;28.23;17.85;;;2.60;99.90;;;;;;4922488;29;20555;-90
2022/01/29 05:46:20;;;;;;;28.20;16.23;;;2.70;99.90;;;;;;4933225;29;20071;-91
2022/01/29 05:48:46;;;;;;;27.08;17.50;;;3.10;99.90;;;;;;4917407;29;20024;-91
2022/01/29 05:51:12;;;;;;;28.05;17.40;;;2.70;99.90;;;;;;4928164;29;20035;-91
2022/01/29 05:53:38;;;;;;;25.45;16.20;;;2.70;99.90;;;;;;4936073;29;20042;-91
2022/01/29 05:56:05;;;;;;;28.88;17.80;;;2.80;99.90;;;;;;4933747;29;20073;-91
2022/01/29 05:58:30;;;;;;;28.95;17.42;;;2.90;99.90;;;;;;4932654;29;20123;-91
2022/01/29 06:00:56;;;;;;;27.77;16.83;;;2.70;99.90;;;;;;4916871;29;20501;-90
2022/01/29 06:03:21;;;;;;;27.20;16.67;;;2.70;99.90;;;;;;4931444;29;20055;-91
2022/01/29 06:05:47;;;;;;;31.40;17.42;;;2.70;99.90;;;;;;4936337;29;20492;-91
2022/01/29 06:08:13;;;;;;;30.15;18.05;;;2.90;99.90;;;;;;4928984;29;20031;-91
2022/01/29 06:10:39;;;;;;;29.70;17.40;;;3.10;99.90;;;;;;4931452;29;20028;-91
2022/01/29 06:13:10;;;;;;;27.88;17.17;;;2.80;99.90;;;;;;4935679;29;20036;-90
2022/01/29 06:15:40;;;;;;;48.60;29.17;;;2.90;99.90;;;;;;4918235;29;20155;-90
2022/01/29 06:18:07;;;;;;;30.02;18.85;;;2.90;99.90;;;;;;4918123;29;20079;-91
2022/01/29 06:20:32;;;;;;;26.77;16.88;;;3.40;99.90;;;;;;4916549;29;20028;-91
2022/01/29 06:22:58;;;;;;;30.13;18.67;;;2.70;99.90;;;;;;4917831;29;20058;-91
2022/01/29 06:25:24;;;;;;;32.40;19.30;;;2.70;99.90;;;;;;4918045;29;20099;-91
2022/01/29 06:27:51;;;;;;;31.55;19.40;;;2.80;99.90;;;;;;4917406;29;20036;-91
2022/01/29 06:30:17;;;;;;;33.65;19.58;;;2.70;99.90;;;;;;4917724;29;20087;-91
2022/01/29 06:32:43;;;;;;;35.75;21.13;;;3.20;99.90;;;;;;4916790;29;20043;-91
2022/01/29 06:35:09;;;;;;;29.25;18.33;;;3.20;99.90;;;;;;4908188;29;20036;-91
2022/01/29 06:37:35;;;;;;;29.90;18.85;;;2.60;99.90;;;;;;4898310;29;20386;-91
2022/01/29 06:40:01;;;;;;;30.88;18.33;;;2.60;99.90;;;;;;4897484;29;20029;-91
2022/01/29 06:42:26;;;;;;;30.80;19.10;;;2.40;99.90;;;;;;4928995;29;20560;-91
2022/01/29 06:44:52;;;;;;;29.42;17.95;;;2.50;99.90;;;;;;4919897;29;20027;-91
2022/01/29 06:47:18;;;;;;;27.40;17.13;;;2.50;99.90;;;;;;4920288;29;20055;-91
2022/01/29 06:49:44;;;;;;;30.42;17.50;;;2.50;99.90;;;;;;4919969;29;20579;-90
2022/01/29 06:52:09;;;;;;;28.30;16.10;;;2.70;99.90;;;;;;4936366;29;20023;-91
2022/01/29 06:54:35;;;;;;;31.05;18.13;;;2.50;99.90;;;;;;4931696;29;20031;-90
2022/01/29 06:57:00;;;;;;;31.13;18.02;;;2.50;99.90;;;;;;4955780;29;20074;-91
2022/01/29 06:59:26;;;;;;;32.78;18.92;;;2.60;99.90;;;;;;4947543;29;20551;-90
2022/01/29 07:01:52;;;;;;;33.10;19.25;;;2.60;99.90;;;;;;4919517;29;20066;-91
2022/01/29 07:04:17;;;;;;;26.30;15.77;;;2.60;99.90;;;;;;4919345;29;20126;-91
2022/01/29 07:06:43;;;;;;;33.88;19.95;;;2.50;99.90;;;;;;4954438;29;20055;-91
2022/01/29 07:09:09;;;;;;;29.02;16.50;;;2.50;99.90;;;;;;4932457;29;20245;-90
2022/01/29 07:11:34;;;;;;;25.35;15.93;;;2.60;99.90;;;;;;4936363;29;20774;-91
2022/01/29 07:14:02;;;;;;;28.73;16.75;;;2.60;99.90;;;;;;4936420;29;20036;-91
2022/01/29 07:16:34;;;;;;;26.92;16.95;;;2.60;99.90;;;;;;4936399;29;20052;-91
2022/01/29 07:18:59;;;;;;;28.42;16.08;;;2.50;99.90;;;;;;4918607;29;20382;-91
2022/01/29 07:21:25;;;;;;;28.55;16.40;;;2.50;99.90;;;;;;4916680;29;20028;-91
2022/01/29 07:23:51;;;;;;;25.13;15.75;;;2.60;99.90;;;;;;4932439;29;20389;-91
2022/01/29 07:26:17;;;;;;;26.90;15.57;;;2.60;99.90;;;;;;4936898;29;20103;-89
2022/01/29 07:28:43;;;;;;;25.02;15.38;;;2.50;99.90;;;;;;4949927;29;20019;-89
2022/01/29 07:31:08;;;;;;;26.05;15.70;;;2.40;99.90;;;;;;4936254;29;20035;-89
2022/01/29 07:33:34;;;;;;;24.08;14.50;;;2.50;99.90;;;;;;4922718;29;20068;-90
2022/01/29 07:36:00;;;;;;;27.35;15.02;;;2.60;99.90;;;;;;4938706;29;20039;-89
2022/01/29 07:38:28;;;;;;;23.35;14.82;;;3.00;99.90;;;;;;4938436;29;20028;-90
2022/01/29 07:40:53;;;;;;;27.65;15.73;;;2.50;99.90;;;;;;4938432;29;20385;-90
2022/01/29 07:43:19;;;;;;;27.27;15.45;;;2.50;99.90;;;;;;4933649;29;20040;-90
2022/01/29 07:45:45;;;;;;;26.77;15.80;;;2.40;99.90;;;;;;4923099;29;20028;-89
2022/01/29 07:48:11;;;;;;;26.00;15.65;;;2.70;99.90;;;;;;4939073;29;20572;-90
2022/01/29 07:50:37;;;;;;;27.17;15.27;;;2.40;99.90;;;;;;4938839;29;20066;-90
2022/01/29 07:53:03;;;;;;;30.15;16.67;;;2.40;99.90;;;;;;4927850;29;20035;-90
2022/01/29 07:55:32;;;;;;;24.63;14.98;;;2.70;99.90;;;;;;4938640;29;20504;-90
2022/01/29 07:58:02;;;;;;;24.95;14.98;;;2.60;99.90;;;;;;4941091;29;20024;-90
2022/01/29 08:00:28;;;;;;;25.65;14.82;;;2.40;99.90;;;;;;4939462;29;20392;-90
2022/01/29 08:02:54;;;;;;;27.13;16.02;;;2.70;99.90;;;;;;4927416;29;20032;-88
2022/01/29 08:05:19;;;;;;;28.10;16.63;;;2.40;99.90;;;;;;4941743;29;20039;-88
2022/01/29 08:07:45;;;;;;;30.27;17.20;;;2.60;99.90;;;;;;4939957;29;20181;-89
2022/01/29 08:10:11;;;;;;;28.08;16.52;;;2.60;99.90;;;;;;4937446;29;20039;-89
2022/01/29 08:12:37;;;;;;;31.45;18.00;;;3.00;99.90;;;;;;4941645;29;20115;-88
2022/01/29 08:15:06;;;;;;;33.08;19.48;;;2.60;99.90;;;;;;4941006;29;20118;-87
2022/01/29 08:17:32;;;;;;;38.67;22.55;;;2.60;99.90;;;;;;4940581;29;20031;-86
2022/01/29 08:19:58;;;;;;;45.17;27.88;;;2.70;99.90;;;;;;4924754;29;20032;-88
2022/01/29 08:22:24;;;;;;;39.83;24.17;;;2.80;99.90;;;;;;4936558;29;20027;-88
2022/01/29 08:24:52;;;;;;;26.08;16.10;;;2.80;99.90;;;;;;4942026;29;20102;-90
2022/01/29 08:27:18;;;;;;;33.08;20.25;;;2.70;99.90;;;;;;4947823;29;20042;-88
2022/01/29 08:29:44;;;;;;;36.25;20.88;;;2.90;99.90;;;;;;4945441;29;20106;-89
2022/01/29 08:32:10;;;;;;;30.38;18.70;;;2.90;99.90;;;;;;4925246;29;20115;-88
2022/01/29 08:34:35;;;;;;;26.67;16.75;;;2.70;99.90;;;;;;4938013;29;20024;-89
2022/01/29 08:37:03;;;;;;;28.73;17.63;;;3.00;99.90;;;;;;4939675;29;20044;-88
2022/01/29 08:39:29;;;;;;;29.48;16.77;;;2.50;99.90;;;;;;4948587;29;20032;-89
2022/01/29 08:41:55;;;;;;;27.23;16.42;;;2.50;99.90;;;;;;4943855;29;20062;-88
2022/01/29 08:44:21;;;;;;;27.90;16.00;;;2.40;99.90;;;;;;4925065;29;20024;-91
2022/01/29 08:46:47;;;;;;;41.35;24.15;;;2.70;99.90;;;;;;4921232;29;20407;-89
2022/01/29 08:49:13;;;;;;;29.67;17.63;;;2.50;99.90;;;;;;4934759;29;20071;-89
2022/01/29 08:51:39;;;;;;;28.08;16.40;;;2.70;99.90;;;;;;4938863;29;20031;-90
2022/01/29 08:54:05;;;;;;;84.45;54.13;;;3.00;99.90;;;;;;4942112;29;20032;-88
2022/01/29 08:56:30;;;;;;;90.38;60.05;;;2.70;99.90;;;;;;4925509;29;20079;-89
2022/01/29 08:58:56;;;;;;;28.80;16.80;;;3.20;99.90;;;;;;4940885;29;20130;-89
2022/01/29 09:01:22;;;;;;;31.55;18.38;;;2.70;99.90;;;;;;4920151;29;20032;-91
2022/01/29 09:03:47;;;;;;;26.05;15.82;;;2.60;99.90;;;;;;4923814;29;20058;-87
2022/01/29 09:06:13;;;;;;;25.52;15.63;;;3.20;99.90;;;;;;4940439;29;20044;-89
2022/01/29 09:08:40;;;;;;;30.60;18.65;;;2.60;99.90;;;;;;4940525;29;20543;-86
2022/01/29 09:11:06;;;;;;;26.70;16.27;;;2.60;99.90;;;;;;4940270;29;20031;-90
2022/01/29 09:13:32;;;;;;;29.15;17.20;;;3.00;99.90;;;;;;4936632;29;20042;-89
2022/01/29 09:15:58;;;;;;;28.33;16.35;;;2.70;99.90;;;;;;4939487;29;20555;-88
2022/01/29 09:18:25;;;;;;;26.45;16.80;;;2.50;99.90;;;;;;4940103;29;20028;-89
2022/01/29 09:20:50;;;;;;;28.10;16.50;;;2.50;99.90;;;;;;4924095;29;20055;-89
2022/01/29 09:23:16;;;;;;;38.65;21.73;;;2.90;99.90;;;;;;4922641;29;20077;-88
2022/01/29 09:25:42;;;;;;;23.00;15.00;;;2.60;99.90;;;;;;4933958;29;20374;-87
2022/01/29 09:28:09;;;;;;;23.70;15.10;;;2.40;99.90;;;;;;4938195;29;20055;-90
2022/01/29 09:30:35;;;;;;;46.83;25.05;;;2.30;99.90;;;;;;4923514;29;20043;-90
2022/01/29 09:33:01;;;;;;;35.72;20.38;;;2.80;99.90;;;;;;4925551;29;20090;-90
2022/01/29 09:35:27;;;;;;;30.58;17.83;;;3.20;99.90;;;;;;4940324;29;20078;-89
2022/01/29 09:37:54;;;;;;;25.90;16.02;;;2.80;99.90;;;;;;4939146;29;20480;-89
2022/01/29 09:40:20;;;;;;;26.13;15.40;;;2.70;99.90;;;;;;4919118;29;20035;-87
2022/01/29 09:42:47;;;;;;;23.55;14.52;;;2.80;99.90;;;;;;4939661;29;20496;-89
2022/01/29 09:45:14;;;;;;;24.80;14.43;;;2.80;99.90;;;;;;4939531;29;20039;-90
2022/01/29 09:47:42;;;;;;;26.00;15.05;;;3.30;99.90;;;;;;4939137;29;20035;-89
2022/01/29 09:50:09;;;;;;;21.23;13.00;;;3.00;99.90;;;;;;4939632;29;20032;-90
2022/01/29 09:52:34;;;;;;;21.13;12.90;;;2.90;99.90;;;;;;4936434;29;20062;-86
2022/01/29 09:55:00;;;;;;;24.70;14.18;;;3.00;99.90;;;;;;4921145;29;20118;-89
2022/01/29 09:57:26;;;;;;;20.23;12.80;;;2.80;99.90;;;;;;4939915;29;20511;-89
2022/01/29 09:59:51;;;;;;;23.42;13.63;;;2.80;99.90;;;;;;4939427;29;20291;-88
2022/01/29 10:02:19;;;;;;;24.73;13.68;;;2.60;99.90;;;;;;4942580;29;20031;-89
2022/01/29 10:04:50;;;;;;;24.23;13.05;;;2.70;99.90;;;;;;4939936;29;20031;-88
2022/01/29 10:07:17;;;;;;;22.33;12.98;;;3.50;99.90;;;;;;4935505;29;20039;-87
2022/01/29 10:09:43;;;;;;;20.70;12.30;;;3.00;99.90;;;;;;4939441;29;20031;-87
2022/01/29 10:12:16;;;;;;;22.65;12.80;;;3.10;99.90;;;;;;4938831;29;20035;-89
2022/01/29 10:14:47;;;;;;;22.80;12.65;;;3.10;99.90;;;;;;4938625;28;20485;-88
2022/01/29 10:17:13;;;;;;;22.98;12.93;;;3.20;99.90;;;;;;4938431;29;20047;-88
2022/01/29 10:19:38;;;;;;;23.42;13.43;;;3.10;99.90;;;;;;4936454;29;20446;-87
2022/01/29 10:22:04;;;;;;;24.40;13.68;;;3.40;99.90;;;;;;4919386;29;20118;-88
2022/01/29 10:24:30;;;;;;;24.52;13.68;;;2.90;99.90;;;;;;4947204;29;20024;-88
2022/01/29 10:26:55;;;;;;;23.00;13.60;;;3.00;99.90;;;;;;4925995;29;20043;-87
2022/01/29 10:29:26;;;;;;;20.92;13.45;;;3.10;99.90;;;;;;4938371;29;20111;-88
2022/01/29 10:31:54;;;;;;;24.20;14.25;;;3.20;99.90;;;;;;4937652;29;20046;-87
2022/01/29 10:34:33;;;;;;;23.65;14.30;;;3.20;99.90;;;;;;4934558;29;20059;-87
2022/01/29 10:37:20;;;;;;;27.35;16.45;;;3.40;99.90;;;;;;4946042;29;20039;-88
2022/01/29 10:40:15;;;;;;;22.75;13.52;;;3.50;99.90;;;;;;4949183;29;20031;-88
2022/01/29 10:42:41;;;;;;;23.48;12.30;;;3.60;99.90;;;;;;4920124;29;20497;-88
2022/01/29 10:45:08;;;;;;;19.50;12.48;;;3.60;99.90;;;;;;4922864;29;20119;-88
2022/01/29 10:47:54;;;;;;;16.63;10.77;;;3.80;99.90;;;;;;4937790;29;20024;-88
2022/01/29 10:50:20;;;;;;;20.20;11.07;;;3.60;99.90;;;;;;4936807;29;20029;-87
2022/01/29 10:52:46;;;;;;;20.33;11.57;;;3.70;99.90;;;;;;4946444;29;20023;-87
2022/01/29 10:55:11;;;;;;;18.52;11.23;;;3.40;99.90;;;;;;4948827;29;20058;-87
2022/01/29 10:57:44;;;;;;;20.40;12.25;;;3.70;99.90;;;;;;4947979;29;20031;-86
2022/01/29 11:00:17;;;;;;;20.30;11.73;;;3.90;99.90;;;;;;4939157;29;20395;-86
2022/01/29 11:02:44;;;;;;;20.40;12.82;;;4.10;99.90;;;;;;4940426;29;20118;-89
2022/01/29 11:05:10;;;;;;;23.52;12.90;;;4.30;99.90;;;;;;4947532;29;20038;-89
2022/01/29 11:07:37;;;;;;;25.17;15.23;;;4.10;99.90;;;;;;4934981;29;20110;-85
2022/01/29 11:10:06;;;;;;;23.17;14.88;;;4.00;99.90;;;;;;4936604;29;20139;-87
2022/01/29 11:12:34;;;;;;;21.98;14.18;;;3.90;99.90;;;;;;4938269;29;20052;-87
2022/01/29 11:15:02;;;;;;;67.55;30.17;;;4.10;99.90;;;;;;4937150;29;20107;-87
2022/01/29 11:17:29;;;;;;;26.38;14.85;;;3.80;99.90;;;;;;4938004;29;20044;-87
2022/01/29 11:19:55;;;;;;;45.42;21.45;;;4.10;99.90;;;;;;4938048;29;20114;-88
2022/01/29 11:22:29;;;;;;;20.10;12.05;;;3.80;99.90;;;;;;4933736;29;20557;-87
2022/01/29 11:25:00;;;;;;;21.23;12.40;;;3.60;99.90;;;;;;4920940;29;20031;-87
2022/01/29 11:27:27;;;;;;;21.55;12.18;;;4.00;99.90;;;;;;4940796;29;20032;-87
2022/01/29 11:30:08;;;;;;;21.27;12.43;;;3.60;99.90;;;;;;4941296;29;20059;-86
2022/01/29 11:32:44;;;;;;;25.30;14.73;;;3.80;99.90;;;;;;4925261;29;20031;-86
2022/01/29 11:35:28;;;;;;;22.98;14.45;;;3.70;99.90;;;;;;4941508;29;20031;-84
2022/01/29 11:38:03;;;;;;;24.30;14.15;;;3.90;99.90;;;;;;4940882;29;20043;-85
2022/01/29 11:40:39;;;;;;;23.08;13.68;;;4.20;99.90;;;;;;4922901;29;20023;-85
2022/01/29 11:43:07;;;;;;;23.45;14.63;;;3.80;99.90;;;;;;4939062;29;20052;-85
2022/01/29 11:45:46;;;;;;;24.75;14.15;;;3.70;99.90;;;;;;4941215;29;20047;-85
2022/01/29 11:48:28;;;;;;;24.40;14.65;;;3.60;99.90;;;;;;4941418;29;20032;-85
2022/01/29 11:50:59;;;;;;;20.92;12.95;;;3.80;99.90;;;;;;4941129;29;20456;-84
2022/01/29 11:53:26;;;;;;;23.48;13.00;;;3.90;99.90;;;;;;4925382;29;20028;-84
2022/01/29 11:55:56;;;;;;;20.65;13.27;;;3.70;99.90;;;;;;4940373;29;20035;-84
2022/01/29 11:58:26;;;;;;;24.80;14.18;;;3.90;99.90;;;;;;4936881;29;20058;-84
2022/01/29 12:01:04;;;;;;;19.23;12.27;;;4.00;99.90;;;;;;4947956;29;20034;-85
2022/01/29 12:03:33;;;;;;;20.95;12.73;;;3.90;99.90;;;;;;4940734;29;20215;-83
2022/01/29 12:06:13;;;;;;;21.92;12.60;;;3.90;99.90;;;;;;4940895;29;20024;-84
2022/01/29 12:09:05;;;;;;;20.38;12.85;;;4.40;99.90;;;;;;4940648;29;20114;-83
2022/01/29 12:11:37;;;;;;;18.98;11.65;;;4.20;99.90;;;;;;4938109;29;20040;-85
2022/01/29 12:14:12;;;;;;;21.92;12.70;;;4.10;99.90;;;;;;4940849;29;20030;-84
2022/01/29 12:16:54;;;;;;;20.80;12.82;;;4.20;99.90;;;;;;4938251;29;20082;-84
2022/01/29 12:19:38;;;;;;;20.52;12.63;;;4.10;99.90;;;;;;4936840;29;20024;-83
2022/01/29 12:22:11;;;;;;;19.45;12.18;;;4.00;99.90;;;;;;4949386;29;20035;-84
2022/01/29 12:24:37;;;;;;;19.30;11.57;;;4.00;99.90;;;;;;4939398;29;20027;-84
2022/01/29 12:27:04;;;;;;;19.50;11.38;;;4.50;99.90;;;;;;4940442;29;20119;-85
2022/01/29 12:29:30;;;;;;;19.27;11.60;;;4.10;99.90;;;;;;4940357;29;20059;-85
2022/01/29 12:31:57;;;;;;;17.55;11.05;;;4.20;99.90;;;;;;4939994;29;20020;-85
2022/01/29 12:34:24;;;;;;;20.00;12.43;;;4.20;99.90;;;;;;4936739;29;20031;-85
2022/01/29 12:36:51;;;;;;;20.80;12.25;;;4.50;99.90;;;;;;4923048;29;20378;-82
2022/01/29 12:39:22;;;;;;;18.10;11.57;;;4.70;99.90;;;;;;4939366;29;20074;-84
2022/01/29 12:42:05;;;;;;;20.83;12.30;;;4.60;99.90;;;;;;4939684;29;20296;-84
2022/01/29 12:44:30;;;;;;;18.65;11.82;;;4.20;99.90;;;;;;4940548;29;20032;-85
2022/01/29 12:46:56;;;;;;;33.20;19.83;;;4.20;99.90;;;;;;4939717;29;20396;-84
2022/01/29 12:49:22;;;;;;;21.92;14.43;;;4.40;99.90;;;;;;4919884;29;20028;-84
2022/01/29 12:51:52;;;;;;;22.35;13.98;;;4.20;99.90;;;;;;4941840;29;20039;-82